Time;durP1;ratioP1;P1;durP2;ratioP2;P2;SDS_P1;SDS_P2;PMS_P1;PMS_P2;Temp;Humidity;BMP_temperature;BMP_pressure;BME280_temperature;BME280_humidity;BME280_pressure;Samples;Min_cycle;Max_cycle;Signal;HPM_P1;HPM_P2
2022/01/15 00:02:43;;;;;;;40.17;36.03;;;;;;;;;;12673631;28;20031;-77
2022/01/15 00:08:47;;;;;;;49.65;44.60;;;;;;;;;;12673573;28;20083;-79
2022/01/15 00:14:51;;;;;;;;;;;;;;;;;;12688007;28;20471;-79
2022/01/15 00:20:56;;;;;;;42.25;36.05;;;;;;;;;;12671571;28;19908;-77
2022/01/15 00:27:04;;;;;;;37.53;31.63;;;;;;;;;;12686727;28;20035;-79
2022/01/15 00:33:13;;;;;;;40.15;32.80;;;;;;;;;;12686771;28;20051;-79
2022/01/15 00:39:23;;;;;;;45.58;40.78;;;;;;;;;;12689754;28;20047;-79
2022/01/15 00:45:35;;;;;;;37.97;33.10;;;;;;;;;;12670322;28;20035;-79
2022/01/15 00:51:43;;;;;;;37.03;31.23;;;;;;;;;;12673113;28;20281;-79
2022/01/15 00:57:45;;;;;;;38.30;31.50;;;;;;;;;;12669573;28;20031;-79
2022/01/15 01:03:57;;;;;;;53.42;42.03;;;;;;;;;;12671565;28;20024;-79
2022/01/15 01:22:57;;;;;;;34.80;29.85;;;;;;;;;;12685036;28;20034;-77
2022/01/15 01:29:45;;;;;;;29.67;26.33;;;;;;;;;;12686626;28;20035;-78
2022/01/15 01:35:41;;;;;;;32.72;29.10;;;;;;;;;;12683609;28;20505;-78
2022/01/15 01:42:08;;;;;;;39.20;31.92;;;;;;;;;;12684052;28;20041;-78
2022/01/15 01:48:22;;;;;;;41.25;35.47;;;;;;;;;;12683874;28;20494;-79
2022/01/15 01:54:29;;;;;;;41.75;34.95;;;;;;;;;;12667656;28;20476;-78
2022/01/15 02:00:39;;;;;;;40.13;34.92;;;;;;;;;;12666715;28;20391;-77
2022/01/15 02:06:45;;;;;;;40.40;34.10;;;;;;;;;;12682358;28;20357;-77
2022/01/15 02:12:50;;;;;;;26.45;21.63;;;;;;;;;;12665609;28;20060;-78
2022/01/15 02:18:59;;;;;;;40.55;34.40;;;;;;;;;;12684358;28;20043;-79
2022/01/15 02:25:09;;;;;;;40.35;35.50;;;;;;;;;;12670668;28;20024;-79
2022/01/15 02:31:14;;;;;;;41.33;35.72;;;;;;;;;;12667945;28;20066;-77
2022/01/15 02:37:17;;;;;;;41.05;34.80;;;;;;;;;;12684008;28;20039;-78
2022/01/15 02:43:32;;;;;;;34.83;30.55;;;;;;;;;;12702766;28;20062;-78
2022/01/15 02:49:37;;;;;;;35.83;31.98;;;;;;;;;;12682300;28;20047;-78
2022/01/15 02:55:47;;;;;;;36.40;30.85;;;;;;;;;;12669812;28;20031;-78
2022/01/15 03:01:55;;;;;;;39.95;32.20;;;;;;;;;;12676724;28;20028;-77
2022/01/15 03:08:05;;;;;;;35.83;30.98;;;;;;;;;;12677573;28;20059;-77
2022/01/15 03:14:12;;;;;;;37.95;31.45;;;;;;;;;;12674411;28;20032;-77
2022/01/15 03:20:21;;;;;;;41.40;34.13;;;;;;;;;;12688475;28;20039;-78
2022/01/15 03:26:39;;;;;;;38.78;32.88;;;;;;;;;;12689130;28;20455;-78
2022/01/15 03:32:48;;;;;;;41.95;34.72;;;;;;;;;;12690874;28;20046;-77
2022/01/15 03:39:00;;;;;;;36.77;29.83;;;;;;;;;;12690248;28;20059;-79
2022/01/15 03:45:13;;;;;;;38.35;33.38;;;;;;;;;;12692074;28;20028;-77
2022/01/15 03:51:27;;;;;;;52.85;43.20;;;;;;;;;;12706282;28;20039;-79
2022/01/15 03:57:40;;;;;;;41.53;34.88;;;;;;;;;;12688234;28;20038;-79
2022/01/15 04:03:51;;;;;;;50.35;40.15;;;;;;;;;;12740869;27;20031;-79
2022/01/15 04:10:04;;;;;;;47.22;37.08;;;;;;;;;;12740310;27;20062;-79
2022/01/15 04:16:19;;;;;;;38.08;31.85;;;;;;;;;;12724852;27;20034;-78
2022/01/15 04:22:30;;;;;;;37.22;31.65;;;;;;;;;;12722837;27;20038;-78
2022/01/15 04:28:41;;;;;;;40.17;31.52;;;;;;;;;;12723168;27;20035;-76
2022/01/15 04:34:52;;;;;;;45.40;37.67;;;;;;;;;;12722590;27;20035;-79
2022/01/15 04:41:05;;;;;;;46.90;37.55;;;;;;;;;;12725714;27;20472;-79
2022/01/15 04:47:11;;;;;;;40.85;34.42;;;;;;;;;;12739398;27;20026;-77
2022/01/15 04:53:21;;;;;;;41.75;34.33;;;;;;;;;;12721361;27;20039;-79
2022/01/15 04:59:32;;;;;;;52.67;42.22;;;;;;;;;;12739179;27;20370;-76
2022/01/15 05:05:37;;;;;;;46.63;37.70;;;;;;;;;;12737151;27;20030;-78
2022/01/15 05:11:59;;;;;;;39.55;31.55;;;;;;;;;;12703320;27;20051;-78
2022/01/15 05:18:02;;;;;;;32.20;27.63;;;;;;;;;;12721250;27;20031;-77
2022/01/15 05:24:18;;;;;;;47.10;37.75;;;;;;;;;;12721310;27;20038;-79
2022/01/15 05:30:32;;;;;;;40.58;35.85;;;;;;;;;;12721209;27;20035;-78
2022/01/15 05:36:58;;;;;;;40.97;34.50;;;;;;;;;;12739693;27;20038;-79
2022/01/15 05:43:02;;;;;;;33.72;27.83;;;;;;;;;;12720974;27;20035;-79
2022/01/15 05:49:05;;;;;;;41.30;32.67;;;;;;;;;;12735962;27;20049;-77
2022/01/15 05:55:21;;;;;;;42.65;33.65;;;;;;;;;;12719772;27;20038;-77
2022/01/15 06:01:41;;;;;;;46.38;38.25;;;;;;;;;;12734910;27;20038;-79
2022/01/15 06:08:00;;;;;;;40.03;32.03;;;;;;;;;;12703343;27;20057;-77
2022/01/15 06:14:11;;;;;;;41.70;34.60;;;;;;;;;;12735357;28;20035;-77
2022/01/15 06:20:30;;;;;;;37.22;30.88;;;;;;;;;;12718896;28;20031;-77
2022/01/15 06:26:46;;;;;;;34.30;27.40;;;;;;;;;;12719027;28;20043;-77
2022/01/15 06:32:53;;;;;;;39.20;31.67;;;;;;;;;;12727826;27;20509;-77
2022/01/15 06:38:57;;;;;;;35.25;27.67;;;;;;;;;;12728493;27;20067;-77
2022/01/15 06:45:03;;;;;;;37.90;31.90;;;;;;;;;;12729174;27;20133;-77
2022/01/15 06:51:18;;;;;;;27.58;23.25;;;;;;;;;;12746610;27;20039;-78
2022/01/15 06:57:36;;;;;;;43.80;31.67;;;;;;;;;;12730345;27;20031;-79
2022/01/15 07:03:45;;;;;;;28.60;24.85;;;;;;;;;;12726664;27;20031;-77
2022/01/15 07:09:50;;;;;;;40.50;31.48;;;;;;;;;;12727693;27;20055;-78
2022/01/15 07:15:58;;;;;;;37.25;27.92;;;;;;;;;;12727754;27;20034;-79
2022/01/15 07:22:03;;;;;;;28.98;24.95;;;;;;;;;;12726586;27;20024;-77
2022/01/15 07:28:11;;;;;;;41.22;31.85;;;;;;;;;;12741248;27;20035;-79
2022/01/15 07:34:26;;;;;;;41.38;33.92;;;;;;;;;;12726529;27;20035;-77
2022/01/15 07:40:40;;;;;;;41.35;34.15;;;;;;;;;;12722097;27;20042;-79
2022/01/15 07:46:50;;;;;;;30.03;25.07;;;;;;;;;;12723633;27;20034;-79
2022/01/15 07:53:01;;;;;;;34.78;29.88;;;;;;;;;;12724281;27;20035;-79
2022/01/15 07:59:12;;;;;;;55.42;44.20;;;;;;;;;;12738965;27;20027;-79
2022/01/15 08:05:20;;;;;;;46.78;40.50;;;;;;;;;;12723940;27;20034;-77
2022/01/15 08:11:34;;;;;;;52.78;44.78;;;;;;;;;;12692036;28;20055;-77
2022/01/15 08:17:50;;;;;;;49.08;39.90;;;;;;;;;;12687728;28;20020;-79
2022/01/15 08:23:57;;;;;;;36.97;33.05;;;;;;;;;;12688693;28;20069;-77
2022/01/15 08:30:05;;;;;;;36.15;32.20;;;;;;;;;;12686719;28;20040;-80
2022/01/15 08:36:17;;;;;;;40.58;36.58;;;;;;;;;;12689082;28;20043;-77
2022/01/15 08:42:23;;;;;;;40.58;36.55;;;;;;;;;;12690827;28;20035;-77
2022/01/15 08:48:32;;;;;;;37.97;34.13;;;;;;;;;;12690200;28;20039;-78
2022/01/15 08:54:55;;;;;;;37.00;33.30;;;;;;;;;;12689463;28;20014;-80
2022/01/15 09:01:20;;;;;;;33.25;30.00;;;;;;;;;;12675300;28;20058;-80
2022/01/15 09:08:24;;;;;;;26.58;24.17;;;;;;;;;;12697815;28;20058;-77
2022/01/15 09:14:42;;;;;;;28.88;26.17;;;;;;;;;;12690148;28;20395;-79
2022/01/15 09:20:46;;;;;;;26.92;24.35;;;;;;;;;;12704595;28;20027;-78
2022/01/15 09:27:02;;;;;;;27.25;24.45;;;;;;;;;;12687893;28;20040;-77
2022/01/15 09:33:39;;;;;;;24.92;22.73;;;;;;;;;;12703991;28;20043;-79
2022/01/15 09:39:53;;;;;;;21.40;19.38;;;;;;;;;;12688033;28;20035;-80
2022/01/15 09:46:08;;;;;;;25.77;23.25;;;;;;;;;;12670004;28;20035;-78
2022/01/15 09:52:30;;;;;;;22.60;20.40;;;;;;;;;;12688508;28;20047;-77
2022/01/15 09:58:48;;;;;;;19.33;17.52;;;;;;;;;;12686759;28;20387;-79
2022/01/15 10:05:05;;;;;;;20.00;18.20;;;;;;;;;;12655156;28;20044;-78
2022/01/15 10:11:11;;;;;;;20.65;18.65;;;;;;;;;;12687030;28;20047;-76
2022/01/15 10:17:43;;;;;;;22.67;20.48;;;;;;;;;;12686877;28;20035;-76
2022/01/15 10:23:51;;;;;;;;;;;;;;;;;;12668021;28;20023;-76
2022/01/15 10:30:44;;;;;;;22.05;20.00;;;;;;;;;;12669572;28;19915;-79
2022/01/15 10:36:52;;;;;;;22.00;19.90;;;;;;;;;;12671458;28;20118;-79
2022/01/15 10:43:21;;;;;;;22.13;19.88;;;;;;;;;;12686183;28;20047;-79
2022/01/15 10:49:29;;;;;;;23.95;21.67;;;;;;;;;;12637375;28;20040;-79
2022/01/15 10:55:33;;;;;;;21.73;19.58;;;;;;;;;;12636026;28;20032;-77
2022/01/15 11:01:42;;;;;;;21.15;19.13;;;;;;;;;;12620287;28;20031;-77
2022/01/15 11:08:02;;;;;;;24.55;22.15;;;;;;;;;;12621723;28;20059;-79
2022/01/15 11:14:46;;;;;;;19.48;17.48;;;;;;;;;;12673706;28;20051;-79
2022/01/15 11:20:53;;;;;;;19.02;17.23;;;;;;;;;;12661448;28;20040;-77
2022/01/15 11:27:04;;;;;;;19.75;17.75;;;;;;;;;;12660446;28;20391;-76
2022/01/15 11:33:22;;;;;;;18.20;16.50;;;;;;;;;;12694715;28;20051;-77
2022/01/15 11:40:43;;;;;;;25.25;22.30;;;;;;;;;;12711325;28;20036;-76
2022/01/15 11:47:15;;;;;;;21.93;19.57;;;;;;;;;;12666083;28;20058;-79
2022/01/15 11:53:39;;;;;;;19.85;17.85;;;;;;;;;;12674789;28;20054;-79
2022/01/15 11:59:59;;;;;;;16.92;15.32;;;;;;;;;;12676195;28;20042;-77
2022/01/15 12:06:02;;;;;;;17.02;15.38;;;;;;;;;;12694209;28;20042;-77
2022/01/15 12:12:31;;;;;;;14.05;12.68;;;;;;;;;;12641153;28;20056;-77
2022/01/15 12:18:48;;;;;;;12.55;11.20;;;;;;;;;;12655296;28;20032;-77
2022/01/15 12:24:54;;;;;;;13.95;12.43;;;;;;;;;;12627224;28;20032;-78
2022/01/15 12:31:02;;;;;;;14.27;12.77;;;;;;;;;;12622356;28;20040;-77
2022/01/15 12:37:32;;;;;;;13.80;11.95;;;;;;;;;;12635072;28;20122;-77
2022/01/15 12:43:40;;;;;;;12.90;11.70;;;;;;;;;;12636860;28;20028;-79
2022/01/15 12:50:02;;;;;;;13.63;12.43;;;;;;;;;;12640111;28;20510;-79
2022/01/15 12:56:31;;;;;;;13.02;11.68;;;;;;;;;;12624477;28;20039;-76
2022/01/15 13:02:36;;;;;;;15.80;14.27;;;;;;;;;;12637492;28;20043;-79
2022/01/15 13:08:50;;;;;;;11.20;10.10;;;;;;;;;;12626421;28;20407;-79
2022/01/15 13:14:59;;;;;;;12.10;10.83;;;;;;;;;;12626314;28;20032;-79
2022/01/15 13:21:21;;;;;;;12.18;10.85;;;;;;;;;;12660046;28;20036;-77
2022/01/15 13:27:31;;;;;;;13.65;12.30;;;;;;;;;;12641215;28;20047;-77
2022/01/15 13:34:01;;;;;;;12.80;11.57;;;;;;;;;;12656458;28;20048;-79
2022/01/15 13:40:33;;;;;;;14.38;12.88;;;;;;;;;;12640582;28;20043;-77
2022/01/15 13:46:54;;;;;;;11.85;10.70;;;;;;;;;;12657915;28;20047;-79
2022/01/15 13:53:14;;;;;;;13.60;12.20;;;;;;;;;;12622074;28;20064;-77
2022/01/15 13:59:32;;;;;;;11.60;10.50;;;;;;;;;;12638017;28;20036;-79
2022/01/15 14:06:02;;;;;;;12.75;11.45;;;;;;;;;;12637421;28;20484;-77
2022/01/15 14:12:11;;;;;;;14.57;13.07;;;;;;;;;;12621180;28;20055;-79
2022/01/15 14:18:30;;;;;;;12.90;11.55;;;;;;;;;;12621683;28;20036;-77
2022/01/15 14:24:54;;;;;;;12.63;11.32;;;;;;;;;;12622653;28;20035;-77
2022/01/15 14:31:01;;;;;;;20.40;18.27;;;;;;;;;;12636287;28;20051;-78
2022/01/15 14:37:07;;;;;;;18.67;16.88;;;;;;;;;;12638138;28;20035;-80
2022/01/15 14:43:34;;;;;;;12.88;11.60;;;;;;;;;;12650717;28;20035;-78
2022/01/15 14:50:05;;;;;;;16.23;14.43;;;;;;;;;;12640565;28;20036;-79
2022/01/15 14:56:15;;;;;;;16.75;14.63;;;;;;;;;;12630290;28;20039;-78
2022/01/15 15:02:40;;;;;;;11.95;10.75;;;;;;;;;;12647467;28;20028;-79
2022/01/15 15:09:02;;;;;;;13.70;12.35;;;;;;;;;;12645762;28;20058;-78
2022/01/15 15:15:12;;;;;;;14.07;12.40;;;;;;;;;;12640705;28;20036;-78
2022/01/15 15:21:45;;;;;;;13.48;12.07;;;;;;;;;;12632339;28;20322;-78
2022/01/15 15:28:07;;;;;;;13.25;11.77;;;;;;;;;;12614264;28;20047;-79
2022/01/15 15:34:28;;;;;;;14.55;12.90;;;;;;;;;;12628959;28;20055;-80
2022/01/15 15:40:46;;;;;;;15.35;13.77;;;;;;;;;;12647399;28;20044;-79
2022/01/15 15:46:50;;;;;;;16.67;14.85;;;;;;;;;;12611280;28;20036;-77
2022/01/15 15:52:58;;;;;;;16.00;14.40;;;;;;;;;;12645036;28;20050;-79
2022/01/15 15:59:48;;;;;;;16.52;14.82;;;;;;;;;;12651834;28;20499;-79
2022/01/15 16:06:15;;;;;;;16.83;15.13;;;;;;;;;;12630345;28;20024;-80
2022/01/15 16:12:29;;;;;;;19.23;16.35;;;;;;;;;;12634138;28;20522;-79
2022/01/15 16:18:35;;;;;;;18.63;16.35;;;;;;;;;;12614503;28;20039;-79
2022/01/15 16:24:45;;;;;;;17.83;15.02;;;;;;;;;;12634422;28;20028;-79
2022/01/15 16:31:06;;;;;;;15.82;14.13;;;;;;;;;;12642670;28;20051;-79
2022/01/15 16:37:20;;;;;;;15.23;13.68;;;;;;;;;;12643029;28;20032;-77
2022/01/15 16:43:46;;;;;;;14.18;12.77;;;;;;;;;;12638074;28;20032;-77
2022/01/15 16:50:09;;;;;;;15.15;13.15;;;;;;;;;;12621479;28;20050;-76
2022/01/15 16:56:27;;;;;;;17.30;15.60;;;;;;;;;;12619217;28;20036;-77
2022/01/15 17:02:36;;;;;;;15.15;13.65;;;;;;;;;;12617664;28;20039;-77
2022/01/15 17:08:48;;;;;;;14.07;12.73;;;;;;;;;;12615874;28;20052;-78
2022/01/15 17:15:02;;;;;;;15.00;13.40;;;;;;;;;;12613682;28;20032;-79
2022/01/15 17:21:12;;;;;;;15.82;14.15;;;;;;;;;;12615723;28;20043;-77
2022/01/15 17:27:16;;;;;;;12.13;10.93;;;;;;;;;;12629525;28;20032;-77
2022/01/15 17:33:19;;;;;;;15.38;13.85;;;;;;;;;;12629599;28;20048;-76
2022/01/15 17:39:27;;;;;;;15.15;13.57;;;;;;;;;;12630215;28;20044;-79
2022/01/15 17:45:31;;;;;;;13.85;12.55;;;;;;;;;;12612459;28;20510;-79
2022/01/15 17:51:35;;;;;;;11.73;10.57;;;;;;;;;;12612126;28;20047;-78
2022/01/15 17:57:45;;;;;;;14.45;12.90;;;;;;;;;;12612284;28;20377;-77
2022/01/15 18:03:53;;;;;;;14.63;13.15;;;;;;;;;;12629953;28;20050;-79
2022/01/15 18:10:02;;;;;;;14.75;13.30;;;;;;;;;;12633019;28;20048;-79
2022/01/15 18:16:13;;;;;;;17.27;15.48;;;;;;;;;;12620782;28;20032;-76
2022/01/15 18:22:22;;;;;;;14.57;13.07;;;;;;;;;;12614293;28;20028;-76
2022/01/15 18:28:34;;;;;;;22.33;20.05;;;;;;;;;;12623531;28;20032;-76
2022/01/15 18:34:57;;;;;;;18.50;16.70;;;;;;;;;;12627974;28;20492;-78
2022/01/15 18:41:05;;;;;;;19.00;17.10;;;;;;;;;;12626981;28;20398;-77
2022/01/15 18:47:15;;;;;;;17.52;15.73;;;;;;;;;;12642417;28;20036;-78
2022/01/15 18:53:28;;;;;;;12.88;11.65;;;;;;;;;;12623136;28;20078;-78
2022/01/15 18:59:36;;;;;;;20.83;18.73;;;;;;;;;;12623158;28;20035;-78
2022/01/15 19:05:50;;;;;;;23.60;21.13;;;;;;;;;;12623064;28;20043;-76
2022/01/15 19:12:04;;;;;;;29.55;26.52;;;;;;;;;;12621932;28;20056;-77
2022/01/15 19:18:24;;;;;;;27.83;24.90;;;;;;;;;;12610514;28;20044;-76
2022/01/15 19:24:27;;;;;;;32.80;29.23;;;;;;;;;;12640443;28;20043;-79
2022/01/15 19:30:34;;;;;;;31.60;28.25;;;;;;;;;;12623776;28;20047;-75
2022/01/15 19:36:39;;;;;;;30.15;27.17;;;;;;;;;;12622140;28;20039;-78
2022/01/15 19:42:42;;;;;;;;;;;;;;;;;;12640232;28;20403;-78
2022/01/15 19:48:51;;;;;;;32.92;29.33;;;;;;;;;;12623138;28;19908;-78
2022/01/15 20:00:54;;;;;;;35.50;31.80;;;;;;;;;;12641928;27;20439;-78
2022/01/15 20:06:57;;;;;;;34.22;30.55;;;;;;;;;;12642277;28;20028;-78
2022/01/15 20:13:02;;;;;;;30.58;27.42;;;;;;;;;;12626988;28;20024;-78
2022/01/15 20:19:07;;;;;;;27.92;25.10;;;;;;;;;;12624098;28;20036;-78
2022/01/15 20:25:17;;;;;;;27.70;24.75;;;;;;;;;;12623992;28;20040;-79
2022/01/15 20:31:26;;;;;;;31.48;28.08;;;;;;;;;;12628638;28;20028;-77
2022/01/15 20:37:32;;;;;;;33.78;29.42;;;;;;;;;;12639384;28;20043;-77
2022/01/15 20:43:38;;;;;;;36.33;30.98;;;;;;;;;;12641257;28;20029;-78
2022/01/15 20:49:43;;;;;;;29.42;26.33;;;;;;;;;;12624450;28;20036;-79
2022/01/15 20:55:56;;;;;;;34.25;30.35;;;;;;;;;;12627159;28;20446;-77
2022/01/15 21:02:21;;;;;;;38.47;34.28;;;;;;;;;;12610577;28;20055;-77
2022/01/15 21:08:38;;;;;;;31.25;27.65;;;;;;;;;;12616162;28;20586;-77
2022/01/15 21:15:12;;;;;;;25.27;22.65;;;;;;;;;;12609487;28;20037;-79
2022/01/15 21:21:26;;;;;;;28.10;25.10;;;;;;;;;;12606916;28;20037;-76
2022/01/15 21:27:38;;;;;;;29.15;26.15;;;;;;;;;;12606545;28;20412;-78
2022/01/15 21:34:11;;;;;;;29.52;26.40;;;;;;;;;;12590716;28;20029;-77
2022/01/15 21:40:21;;;;;;;21.80;19.30;;;;;;;;;;12593330;28;20036;-77
2022/01/15 21:46:29;;;;;;;36.17;32.22;;;;;;;;;;12587810;28;20040;-77
2022/01/15 21:52:35;;;;;;;45.92;40.40;;;;;;;;;;12605847;28;20035;-76
2022/01/15 21:58:47;;;;;;;52.50;46.75;;;;;;;;;;12589649;28;20061;-78
2022/01/15 22:04:58;;;;;;;44.92;40.05;;;;;;;;;;12605140;28;20043;-78
2022/01/15 22:11:11;;;;;;;45.47;40.55;;;;;;;;;;12590264;28;20043;-76
2022/01/15 22:17:22;;;;;;;39.47;35.38;;;;;;;;;;12604869;28;20059;-76
2022/01/15 22:23:33;;;;;;;38.03;34.13;;;;;;;;;;12572500;28;20063;-76
2022/01/15 22:29:39;;;;;;;31.83;28.45;;;;;;;;;;12605278;28;20044;-76
2022/01/15 22:35:45;;;;;;;35.72;31.92;;;;;;;;;;12590078;28;20489;-76
2022/01/15 22:41:50;;;;;;;35.10;31.50;;;;;;;;;;12572006;28;20373;-78
2022/01/15 22:47:58;;;;;;;36.95;32.83;;;;;;;;;;12586078;28;20032;-76
2022/01/15 22:54:02;;;;;;;38.50;34.22;;;;;;;;;;12587894;28;20047;-76
2022/01/15 23:00:28;;;;;;;41.85;36.90;;;;;;;;;;12588281;28;20396;-77
2022/01/15 23:06:52;;;;;;;38.10;32.83;;;;;;;;;;12588407;28;20392;-77
2022/01/15 23:13:16;;;;;;;33.70;30.13;;;;;;;;;;12604966;28;20036;-75
2022/01/15 23:19:23;;;;;;;34.38;30.75;;;;;;;;;;12585973;28;20048;-77
2022/01/15 23:25:38;;;;;;;;;;;;;;;;;;12588943;28;20028;-77
2022/01/15 23:31:59;;;;;;;31.50;28.27;;;;;;;;;;12604051;28;19908;-78
2022/01/15 23:38:14;;;;;;;33.97;30.60;;;;;;;;;;12603315;28;20477;-78
2022/01/15 23:44:27;;;;;;;22.77;20.45;;;;;;;;;;12601660;28;20028;-78
2022/01/15 23:50:34;;;;;;;36.03;32.45;;;;;;;;;;12569466;28;20067;-78
2022/01/15 23:56:46;;;;;;;31.97;28.53;;;;;;;;;;12583485;28;20056;-76
